Time;durP1;ratioP1;P1;durP2;ratioP2;P2;SDS_P1;SDS_P2;PMS_P1;PMS_P2;Temp;Humidity;BMP_temperature;BMP_pressure;BME280_temperature;BME280_humidity;BME280_pressure;Samples;Min_cycle;Max_cycle;Signal;HPM_P1;HPM_P2
2022/10/06 00:01:02;;;;;;;3.37;2.87;;;;;;;10.61;68.65;98268.38;5054335;28;20182;-82
2022/10/06 00:03:30;;;;;;;6.00;3.00;;;;;;;10.58;68.60;98258.06;5049919;28;20229;-82
2022/10/06 00:06:01;;;;;;;3.73;2.80;;;;;;;10.66;68.16;98261.31;5050784;28;20196;-82
2022/10/06 00:08:33;;;;;;;4.77;3.50;;;;;;;10.58;68.64;98268.44;5050588;28;20213;-80
2022/10/06 00:11:00;;;;;;;2.67;2.47;;;;;;;10.52;68.88;98258.22;5051468;28;20185;-79
2022/10/06 00:13:28;;;;;;;3.47;2.90;;;;;;;10.49;68.69;98260.88;5049009;28;20277;-79
2022/10/06 00:15:55;;;;;;;3.20;2.80;;;;;;;10.37;68.80;98254.28;5053572;28;20236;-80
2022/10/06 00:18:22;;;;;;;3.00;2.53;;;;;;;10.50;68.24;98245.34;5050233;28;20182;-78
2022/10/06 00:20:57;;;;;;;5.80;2.80;;;;;;;10.39;67.55;98252.53;5050411;28;20220;-79
2022/10/06 00:23:24;;;;;;;4.47;2.33;;;;;;;10.16;68.06;98256.59;5050276;28;20216;-79
2022/10/06 00:25:51;;;;;;;3.80;2.80;;;;;;;9.83;69.39;98261.63;5054082;28;20296;-78
2022/10/06 00:28:18;;;;;;;3.73;2.60;;;;;;;9.64;70.78;98252.59;5058237;28;20732;-79
2022/10/06 00:30:45;;;;;;;4.87;3.03;;;;;;;9.52;72.10;98263.22;5058682;28;20186;-78
2022/10/06 00:33:15;;;;;;;3.43;2.90;;;;;;;9.56;71.38;98246.75;5056930;28;20190;-80
2022/10/06 00:35:43;;;;;;;2.97;2.67;;;;;;;9.57;71.93;98253.63;5057470;28;20217;-80
2022/10/06 00:38:12;;;;;;;4.17;2.70;;;;;;;9.69;71.79;98248.16;5051589;28;20218;-81
2022/10/06 00:40:48;;;;;;;3.00;2.70;;;;;;;9.82;71.38;98246.16;5050671;28;20581;-79
2022/10/06 00:43:53;;;;;;;3.53;2.70;;;;;;;9.96;70.95;98243.22;5052006;28;20213;-81
2022/10/06 00:46:24;;;;;;;4.70;2.83;;;;;;;10.26;70.01;98247.69;5053177;28;20243;-80
2022/10/06 00:49:02;;;;;;;4.60;2.80;;;;;;;10.36;69.23;98233.63;5051226;28;20273;-81
2022/10/06 00:51:30;;;;;;;4.50;3.00;;;;;;;10.44;68.56;98234.28;5052199;28;20272;-80
2022/10/06 00:53:57;;;;;;;5.33;3.60;;;;;;;10.62;68.13;98249.31;5033650;28;20186;-80
2022/10/06 00:56:25;;;;;;;4.53;2.30;;;;;;;10.72;67.88;98235.22;5050446;28;20662;-80
2022/10/06 00:58:51;;;;;;;8.23;2.70;;;;;;;10.76;67.63;98241.22;5052369;28;20178;-79
2022/10/06 01:01:19;;;;;;;3.00;2.33;;;;;;;10.86;66.80;98235.69;5050806;28;20217;-78
2022/10/06 01:03:52;;;;;;;4.57;2.77;;;;;;;10.84;66.94;98234.06;5050880;28;20228;-76
2022/10/06 01:06:18;;;;;;;3.60;2.80;;;;;;;10.84;67.72;98237.47;5050388;28;20187;-79
2022/10/06 01:08:45;;;;;;;4.40;2.80;;;;;;;10.63;67.39;98189.69;5048474;28;20242;-79
2022/10/06 01:11:13;;;;;;;3.93;2.87;;;;;;;11.00;66.47;98236.19;5048829;28;20219;-80
2022/10/06 01:13:43;;;;;;;4.73;2.70;;;;;;;10.85;66.39;98243.53;5050216;28;20195;-79
2022/10/06 01:16:25;;;;;;;4.97;3.03;;;;;;;10.68;66.69;98238.81;5053466;28;20217;-80
2022/10/06 01:18:54;;;;;;;3.87;2.67;;;;;;;10.70;67.55;98230.97;5051908;28;20236;-81
2022/10/06 01:21:37;;;;;;;2.63;2.43;;;;;;;10.67;67.29;98236.25;5052195;28;20182;-77
2022/10/06 01:24:06;;;;;;;3.10;2.80;;;;;;;10.65;66.19;98233.72;5049814;28;20186;-81
2022/10/06 01:26:38;;;;;;;4.03;2.77;;;;;;;10.46;66.88;98232.50;5052208;28;20746;-80
2022/10/06 01:29:05;;;;;;;5.77;3.33;;;;;;;10.14;67.03;98238.47;5052801;28;20692;-80
2022/10/06 01:31:33;;;;;;;3.87;3.10;;;;;;;9.73;68.29;98226.53;5053419;28;20186;-81
2022/10/06 01:34:01;;;;;;;5.87;3.03;;;;;;;9.57;68.87;98239.84;5050177;28;20708;-78
2022/10/06 01:36:27;;;;;;;6.27;3.07;;;;;;;9.58;69.02;98228.63;5050117;28;20239;-77
2022/10/06 01:38:54;;;;;;;4.63;3.00;;;;;;;9.63;68.83;98227.63;5049157;28;20190;-78
2022/10/06 01:41:25;;;;;;;3.93;3.43;;;;;;;9.63;68.68;98230.22;5032477;28;20224;-77
2022/10/06 01:43:54;;;;;;;5.10;2.90;;;;;;;9.53;68.97;98236.47;5048521;28;20263;-78
2022/10/06 01:46:20;;;;;;;4.23;3.20;;;;;;;9.38;68.98;98235.94;5048148;28;20272;-79
2022/10/06 01:48:48;;;;;;;5.60;3.60;;;;;;;9.13;69.48;98240.78;5047460;28;20225;-78
2022/10/06 01:51:16;;;;;;;4.23;3.30;;;;;;;9.07;70.10;98232.34;5048219;28;20182;-79
2022/10/06 01:53:43;;;;;;;4.97;3.20;;;;;;;9.15;69.50;98225.28;5047481;28;20246;-79
2022/10/06 01:56:09;;;;;;;5.07;3.70;;;;;;;9.35;69.23;98226.56;5047927;28;20186;-78
2022/10/06 01:58:37;;;;;;;5.60;3.20;;;;;;;9.37;68.66;98219.63;5048160;28;20312;-78
2022/10/06 02:01:06;;;;;;;6.67;3.70;;;;;;;9.37;69.10;98221.34;5049961;28;20212;-80
2022/10/06 02:03:36;;;;;;;4.80;3.30;;;;;;;9.29;69.41;98237.03;5052287;28;20221;-78
2022/10/06 02:06:04;;;;;;;5.00;3.93;;;;;;;9.33;69.47;98233.50;5049052;28;20197;-78
2022/10/06 02:08:32;;;;;;;6.00;4.00;;;;;;;9.35;69.44;98226.56;5047983;28;20236;-78
2022/10/06 02:11:09;;;;;;;5.57;3.70;;;;;;;9.33;69.62;98223.16;5047063;28;20266;-80
2022/10/06 02:13:43;;;;;;;7.37;3.80;;;;;;;9.34;68.83;98224.84;5048974;28;20301;-78
2022/10/06 02:16:12;;;;;;;5.53;3.80;;;;;;;9.34;69.54;98229.16;5048883;28;20190;-81
2022/10/06 02:18:40;;;;;;;6.30;3.90;;;;;;;9.21;69.68;98230.31;5046830;28;20189;-76
2022/10/06 02:21:13;;;;;;;4.20;3.60;;;;;;;9.25;70.30;98222.47;5046155;28;20248;-80
2022/10/06 02:23:40;;;;;;;11.33;4.53;;;;;;;9.30;70.03;98217.19;5046780;28;20214;-79
2022/10/06 02:26:07;;;;;;;7.40;4.13;;;;;;;9.48;69.46;98227.97;5048756;28;20252;-77
2022/10/06 02:28:35;;;;;;;6.63;3.60;;;;;;;9.51;69.38;98233.09;5046741;28;20193;-76
2022/10/06 02:31:07;;;;;;;4.87;4.10;;;;;;;9.46;69.77;98234.91;5047201;28;20603;-77
2022/10/06 02:33:36;;;;;;;4.93;3.33;;;;;;;9.11;70.91;98234.81;5046555;28;20202;-76
2022/10/06 02:36:06;;;;;;;6.17;3.43;;;;;;;8.85;71.10;98232.78;5046636;28;20221;-77
2022/10/06 02:38:33;;;;;;;4.00;3.57;;;;;;;8.70;72.08;98234.78;5047285;28;20261;-78
2022/10/06 02:41:05;;;;;;;5.73;3.53;;;;;;;8.51;72.78;98223.94;5047808;28;20217;-77
2022/10/06 02:43:33;;;;;;;4.73;3.13;;;;;;;8.29;74.80;98225.22;5048044;28;20233;-79
2022/10/06 02:46:10;;;;;;;6.93;3.43;;;;;;;8.25;74.89;98226.16;5047032;28;20274;-80
2022/10/06 02:48:41;;;;;;;4.30;3.47;;;;;;;8.21;75.92;98229.66;5063475;28;20189;-79
2022/10/06 02:51:12;;;;;;;4.77;3.40;;;;;;;8.30;75.42;98226.09;5046742;28;20185;-79
2022/10/06 02:53:41;;;;;;;5.47;3.43;;;;;;;8.28;74.88;98230.44;5046013;28;20216;-78
2022/10/06 02:56:11;;;;;;;4.50;3.37;;;;;;;8.40;74.67;98225.03;5046467;28;20633;-78
2022/10/06 02:58:39;;;;;;;4.77;3.23;;;;;;;8.28;75.24;98212.38;5047048;28;20188;-78
2022/10/06 03:01:12;;;;;;;4.97;3.30;;;;;;;8.31;75.22;98225.19;5046349;28;20189;-78
2022/10/06 03:03:40;;;;;;;4.57;3.00;;;;;;;8.29;74.64;98221.78;5046339;28;20224;-79
2022/10/06 03:06:23;;;;;;;3.87;3.47;;;;;;;7.98;76.13;98175.88;5046016;28;20755;-79
2022/10/06 03:09:06;;;;;;;4.10;3.13;;;;;;;8.01;76.77;98209.38;5046175;28;20222;-78
2022/10/06 03:11:38;;;;;;;4.00;3.13;;;;;;;8.07;76.74;98222.16;5029424;28;20198;-79
2022/10/06 03:14:07;;;;;;;3.57;3.00;;;;;;;8.18;76.80;98214.25;5048372;28;20251;-78
2022/10/06 03:16:39;;;;;;;4.47;3.20;;;;;;;8.19;76.62;98209.03;5029390;28;20221;-79
2022/10/06 03:19:12;;;;;;;4.97;3.60;;;;;;;8.30;75.84;98220.94;5045762;28;20691;-79
2022/10/06 03:21:43;;;;;;;4.80;3.40;;;;;;;8.45;75.89;98218.91;5046063;28;20193;-80
2022/10/06 03:24:12;;;;;;;5.50;3.73;;;;;;;8.42;75.70;98218.13;5045520;28;20224;-80
2022/10/06 03:26:44;;;;;;;4.47;3.23;;;;;;;8.35;75.46;98221.69;5046099;28;20193;-80
2022/10/06 03:29:12;;;;;;;6.17;3.30;;;;;;;8.36;76.17;98223.41;5046903;28;20216;-80
2022/10/06 03:31:43;;;;;;;3.37;3.03;;;;;;;8.50;75.74;98211.09;5062204;28;20189;-80
2022/10/06 03:34:14;;;;;;;6.77;4.73;;;;;;;8.57;75.26;98218.66;5046843;28;20555;-80
2022/10/06 03:36:43;;;;;;;6.67;3.20;;;;;;;8.53;75.83;98222.19;5062033;28;20587;-80
2022/10/06 03:39:10;;;;;;;3.83;3.40;;;;;;;8.41;75.91;98222.44;5062705;28;20202;-80
2022/10/06 03:41:38;;;;;;;3.80;3.40;;;;;;;8.42;75.64;98218.97;5046043;28;20220;-80
2022/10/06 03:44:07;;;;;;;6.40;3.53;;;;;;;8.40;75.47;98214.72;5047171;28;20727;-80
2022/10/06 03:46:37;;;;;;;4.60;3.00;;;;;;;8.48;75.32;98223.16;5047473;28;20186;-79
2022/10/06 03:49:06;;;;;;;5.10;3.10;;;;;;;8.50;74.80;98211.09;5054654;28;20249;-78
2022/10/06 03:51:38;;;;;;;3.47;3.17;;;;;;;8.45;75.04;98218.09;5049159;28;20197;-80
2022/10/06 03:54:11;;;;;;;4.33;2.97;;;;;;;8.52;74.05;98211.91;5063732;28;20629;-79
2022/10/06 03:56:44;;;;;;;4.37;2.97;;;;;;;8.53;74.41;98221.38;5046560;28;20193;-79
2022/10/06 03:59:16;;;;;;;4.43;3.00;;;;;;;8.48;74.80;98215.44;5045090;28;20247;-80
2022/10/06 04:01:46;;;;;;;5.73;3.17;;;;;;;8.40;75.46;98215.59;5050283;28;20293;-79
2022/10/06 04:04:25;;;;;;;5.20;3.33;;;;;;;8.33;75.24;98218.28;5050365;28;20217;-80
2022/10/06 04:06:57;;;;;;;3.83;3.10;;;;;;;8.38;74.28;98204.44;5049943;28;20198;-79
2022/10/06 04:09:25;;;;;;;4.67;3.17;;;;;;;8.06;75.12;98176.59;5051004;28;20222;-79
2022/10/06 04:11:52;;;;;;;4.63;3.87;;;;;;;8.33;74.04;98201.06;5049487;28;20190;-78
2022/10/06 04:14:20;;;;;;;3.97;3.40;;;;;;;8.42;74.49;98197.47;5051488;28;20197;-77
2022/10/06 04:16:49;;;;;;;4.63;3.77;;;;;;;8.49;74.22;98199.06;5051116;28;20782;-78
2022/10/06 04:19:31;;;;;;;4.83;3.60;;;;;;;8.30;74.64;98187.38;5049813;28;20205;-77
2022/10/06 04:21:58;;;;;;;4.73;3.27;;;;;;;8.30;74.22;98183.09;5050517;28;20197;-81
2022/10/06 04:24:25;;;;;;;4.43;3.87;;;;;;;8.43;73.79;98200.03;5046741;28;20228;-78
2022/10/06 04:27:26;;;;;;;4.27;3.87;;;;;;;8.55;73.55;98209.28;5048740;28;20209;-78
2022/10/06 04:29:40;;;;;;;5.30;3.53;;;;;;;8.50;72.99;98200.75;5048373;28;20644;-79
2022/10/06 04:32:07;;;;;;;8.07;4.37;;;;;;;8.43;72.86;98196.63;5048139;28;20207;-79
2022/10/06 04:34:36;;;;;;;6.43;4.43;;;;;;;8.59;73.20;98200.59;5047632;28;20184;-78
2022/10/06 04:37:03;;;;;;;5.40;4.43;;;;;;;8.51;73.52;98197.31;5049366;28;20211;-77
2022/10/06 04:39:30;;;;;;;6.57;4.57;;;;;;;8.45;72.68;98202.59;5048889;28;20186;-77
2022/10/06 04:41:57;;;;;;;6.20;4.03;;;;;;;8.38;73.74;98195.84;5048893;28;20190;-77
2022/10/06 04:44:27;;;;;;;7.20;4.20;;;;;;;8.30;74.08;98197.72;5050097;28;20618;-77
2022/10/06 04:46:59;;;;;;;6.57;4.00;;;;;;;8.42;73.14;98194.91;5049280;28;20766;-77
2022/10/06 04:49:26;;;;;;;5.27;3.67;;;;;;;8.43;72.98;98201.78;5051428;28;20216;-78
2022/10/06 04:51:55;;;;;;;9.13;4.80;;;;;;;8.80;72.21;98200.16;5036044;28;20200;-80
2022/10/06 04:54:22;;;;;;;8.53;4.03;;;;;;;8.79;71.30;98190.72;5052178;28;20727;-80
2022/10/06 04:56:55;;;;;;;5.33;4.80;;;;;;;8.85;70.99;98198.34;5033857;28;20693;-78
2022/10/06 05:00:21;;;;;;;6.33;4.47;;;;;;;9.11;70.48;98195.22;5049312;28;20238;-79
2022/10/06 05:02:12;;;;;;;11.07;4.40;;;;;;;9.13;69.43;98194.28;5049635;28;20186;-79
2022/10/06 05:04:41;;;;;;;9.47;4.73;;;;;;;9.24;69.70;98196.63;5050467;28;20732;-77
2022/10/06 05:07:09;;;;;;;7.07;4.97;;;;;;;9.25;68.81;98196.63;5050106;28;20673;-78
2022/10/06 05:09:36;;;;;;;8.53;4.87;;;;;;;9.08;68.93;98193.53;5051554;28;20806;-77
2022/10/06 05:12:03;;;;;;;12.03;4.63;;;;;;;9.02;69.50;98175.59;5053736;28;20193;-77
2022/10/06 05:14:32;;;;;;;9.13;5.00;;;;;;;9.19;69.58;98193.31;5052032;28;20245;-76
2022/10/06 05:17:00;;;;;;;7.63;4.87;;;;;;;9.31;68.98;98198.22;5052181;28;20239;-77
2022/10/06 05:19:29;;;;;;;8.63;5.17;;;;;;;9.25;68.89;98195.78;5068905;28;20197;-80
2022/10/06 05:21:57;;;;;;;7.17;4.40;;;;;;;9.19;69.78;98199.31;5051653;28;20194;-77
2022/10/06 05:24:28;;;;;;;5.47;4.20;;;;;;;9.06;69.59;98179.81;5051399;28;20747;-78
2022/10/06 05:26:55;;;;;;;8.90;4.80;;;;;;;9.21;70.17;98202.72;5054989;28;20221;-79
2022/10/06 05:29:27;;;;;;;9.17;5.13;;;;;;;9.36;69.55;98201.53;5056495;28;20222;-77
2022/10/06 05:31:56;;;;;;;8.70;4.53;;;;;;;9.39;68.98;98197.16;5056843;28;20212;-78
2022/10/06 05:34:25;;;;;;;7.93;4.33;;;;;;;9.75;68.34;98204.06;5054475;28;20220;-77
2022/10/06 05:36:52;;;;;;;8.43;4.77;;;;;;;9.92;67.82;98195.88;5056173;28;20235;-79
2022/10/06 05:39:20;;;;;;;5.60;3.77;;;;;;;10.02;67.91;98201.66;5056128;28;20194;-76
2022/10/06 05:41:53;;;;;;;4.37;3.83;;;;;;;10.11;67.87;98206.66;5040323;28;20190;-76
2022/10/06 05:44:20;;;;;;;6.20;4.70;;;;;;;10.16;67.80;98197.06;5057027;28;20218;-79
2022/10/06 05:46:50;;;;;;;7.70;4.27;;;;;;;10.24;67.70;98205.47;5053693;28;20197;-75
2022/10/06 05:49:18;;;;;;;6.13;4.20;;;;;;;10.32;67.81;98200.94;5053147;28;20206;-76
2022/10/06 05:51:55;;;;;;;4.60;3.73;;;;;;;10.38;67.91;98214.59;5052598;28;20190;-75
2022/10/06 05:54:26;;;;;;;5.17;4.33;;;;;;;10.34;68.35;98215.56;5021142;28;20186;-75
2022/10/06 05:56:53;;;;;;;6.10;4.20;;;;;;;10.40;68.52;98206.78;5050430;28;20236;-75
2022/10/06 05:59:21;;;;;;;6.13;4.37;;;;;;;10.33;68.99;98205.22;5052731;28;20248;-76
2022/10/06 06:01:52;;;;;;;4.83;3.77;;;;;;;10.47;68.92;98213.47;5052874;28;20204;-75
2022/10/06 06:04:27;;;;;;;6.80;4.03;;;;;;;10.74;68.40;98215.31;5038127;28;20236;-77
2022/10/06 06:06:55;;;;;;;5.87;3.40;;;;;;;10.86;68.22;98217.56;5053312;28;20228;-76
2022/10/06 06:09:27;;;;;;;7.50;3.40;;;;;;;11.06;67.79;98212.69;5050757;28;20232;-77
2022/10/06 06:12:01;;;;;;;4.97;3.73;;;;;;;11.17;66.77;98184.69;5056587;28;20217;-80
2022/10/06 06:18:16;;;;;;;6.23;3.40;;;;;;;11.90;65.38;98221.34;4997723;28;20615;-77
2022/10/06 06:20:43;;;;;;;4.37;2.90;;;;;;;11.81;65.08;98219.06;4999056;28;20196;-80
2022/10/06 06:23:10;;;;;;;4.70;3.80;;;;;;;11.55;65.33;98187.84;5015782;28;20202;-76
2022/10/06 06:25:43;;;;;;;4.27;3.43;;;;;;;11.83;65.96;98222.47;5061979;28;20190;-78
2022/10/06 06:28:10;;;;;;;4.67;3.10;;;;;;;12.04;65.04;98219.16;5059294;28;20293;-76
2022/10/06 06:30:38;;;;;;;3.77;3.07;;;;;;;12.24;64.00;98220.19;5060108;28;20187;-77
2022/10/06 06:33:10;;;;;;;3.53;2.93;;;;;;;12.10;63.80;98187.78;5063332;28;20946;-75
2022/10/06 06:35:37;;;;;;;4.23;3.63;;;;;;;12.34;63.73;98223.34;5050990;28;20195;-77
2022/10/06 06:38:10;;;;;;;12.13;8.40;;;;;;;12.80;63.67;98223.44;5051271;28;20194;-76
2022/10/06 06:40:51;;;;;;;8.40;5.53;;;;;;;13.18;61.58;98218.63;5048297;28;20190;-77
2022/10/06 06:43:24;;;;;;;8.03;3.80;;;;;;;13.42;61.23;98215.94;5051431;28;20203;-76
2022/10/06 06:46:11;;;;;;;5.10;2.90;;;;;;;13.56;60.59;98211.06;5052524;28;20191;-79
2022/10/06 06:48:54;;;;;;;4.67;2.50;;;;;;;13.56;60.25;98218.84;5051117;28;20228;-78
2022/10/06 06:51:23;;;;;;;6.83;3.40;;;;;;;13.67;60.02;98208.03;5050499;28;20226;-77
2022/10/06 06:53:52;;;;;;;5.03;2.50;;;;;;;13.55;60.27;98216.31;5016467;28;20591;-78
2022/10/06 06:56:23;;;;;;;5.37;2.90;;;;;;;13.57;61.25;98222.31;5050385;28;20285;-76
2022/10/06 06:58:50;;;;;;;6.47;3.80;;;;;;;13.53;60.30;98192.13;5048694;28;20200;-78
2022/10/06 07:01:21;;;;;;;4.23;2.83;;;;;;;13.82;59.60;98204.84;5052589;28;20182;-77
2022/10/06 07:03:54;;;;;;;5.10;3.00;;;;;;;14.20;58.95;98208.50;5050412;28;20226;-76
2022/10/06 07:06:28;;;;;;;3.33;2.13;;;;;;;14.30;57.39;98208.06;5014984;28;20281;-78
2022/10/06 07:08:58;;;;;;;6.27;2.90;;;;;;;14.44;57.90;98200.53;5047926;28;20224;-77
2022/10/06 07:11:34;;;;;;;4.33;2.43;;;;;;;14.45;57.64;98193.53;5047451;28;20257;-77
2022/10/06 07:14:08;;;;;;;4.60;2.53;;;;;;;14.52;56.77;98203.66;5046532;28;20191;-76
2022/10/06 07:25:11;;;;;;;3.23;2.13;;;;;;;14.95;55.31;98184.34;5045655;28;20350;-75
2022/10/06 07:27:49;;;;;;;5.17;1.77;;;;;;;14.96;56.25;98188.63;5046474;28;20205;-76
2022/10/06 07:30:24;;;;;;;2.10;1.90;;;;;;;15.05;56.05;98190.84;5046702;28;20232;-79
2022/10/06 07:33:07;;;;;;;8.13;2.37;;;;;;;15.25;55.32;98198.59;5045981;28;20256;-77
2022/10/06 07:35:38;;;;;;;4.80;2.43;;;;;;;15.27;54.74;98169.84;5046790;28;20275;-79
2022/10/06 07:38:06;;;;;;;5.10;2.33;;;;;;;15.22;55.26;98193.53;5045769;28;20634;-76
2022/10/06 07:40:40;;;;;;;4.33;2.53;;;;;;;14.96;56.58;98200.84;5045961;28;20188;-77
2022/10/06 07:43:29;;;;;;;2.60;2.40;;;;;;;14.91;56.10;98198.44;5048353;28;20197;-76
2022/10/06 07:45:56;;;;;;;4.13;2.13;;;;;;;14.93;56.73;98195.75;5047381;28;20197;-77
2022/10/06 07:48:37;;;;;;;3.23;1.90;;;;;;;15.04;56.28;98188.31;5046952;28;20212;-77
2022/10/06 07:51:12;;;;;;;2.47;1.80;;;;;;;15.46;55.31;98181.13;5053024;28;20216;-80
2022/10/06 07:53:40;;;;;;;2.23;1.87;;;;;;;15.34;55.03;98176.47;5050353;28;20189;-80
2022/10/06 07:56:20;;;;;;;3.33;2.10;;;;;;;15.68;53.88;98187.06;5049507;28;20603;-79
2022/10/06 07:58:50;;;;;;;7.47;1.97;;;;;;;15.83;52.91;98172.38;5046011;28;20190;-77
2022/10/06 08:01:19;;;;;;;2.27;1.80;;;;;;;15.94;52.76;98173.56;5047190;28;20190;-77
2022/10/06 08:03:50;;;;;;;5.03;2.87;;;;;;;16.23;52.42;98180.81;5051202;28;20222;-80
2022/10/06 08:06:18;;;;;;;2.57;2.10;;;;;;;16.18;52.26;98167.13;5051649;28;20194;-79
2022/10/06 08:08:47;;;;;;;3.50;2.00;;;;;;;16.32;51.65;98173.44;5051123;28;20256;-79
2022/10/06 08:11:19;;;;;;;2.63;2.20;;;;;;;16.52;51.03;98173.28;5050660;28;20185;-80
2022/10/06 08:13:47;;;;;;;2.93;2.37;;;;;;;16.81;50.30;98168.25;5052556;28;20189;-80
2022/10/06 08:16:19;;;;;;;2.63;2.00;;;;;;;16.86;49.78;98150.53;5052758;28;20193;-80
2022/10/06 08:18:54;;;;;;;2.63;1.70;;;;;;;17.11;48.67;98157.91;5052227;28;20188;-81
2022/10/06 08:21:28;;;;;;;7.27;3.47;;;;;;;17.10;49.04;98166.69;5054979;28;20194;-80
2022/10/06 08:23:57;;;;;;;5.53;3.10;;;;;;;17.05;48.95;98155.63;5053606;28;20375;-78
2022/10/06 08:26:26;;;;;;;5.47;3.40;;;;;;;17.02;49.21;98145.34;5053489;28;20280;-77
2022/10/06 08:28:57;;;;;;;6.47;2.63;;;;;;;17.16;48.59;98148.03;5052887;28;20221;-78
2022/10/06 08:31:24;;;;;;;2.10;1.70;;;;;;;17.32;47.66;98130.56;5052365;28;20645;-77
2022/10/06 08:33:56;;;;;;;5.77;2.37;;;;;;;17.53;47.63;98147.75;5051954;28;20193;-77
2022/10/06 08:36:25;;;;;;;3.73;2.20;;;;;;;17.64;47.61;98150.59;5050841;28;20221;-78
2022/10/06 08:38:57;;;;;;;5.23;3.10;;;;;;;17.71;46.97;98120.50;5049834;28;20195;-77
2022/10/06 08:41:38;;;;;;;10.97;2.17;;;;;;;17.93;46.35;98145.50;5050624;28;20261;-79
2022/10/06 08:44:14;;;;;;;2.27;1.60;;;;;;;17.92;46.00;98146.41;5053571;28;20218;-78
2022/10/06 08:46:49;;;;;;;2.23;1.90;;;;;;;18.00;45.89;98144.19;5052695;28;20248;-77
2022/10/06 08:49:21;;;;;;;2.30;2.10;;;;;;;18.08;45.12;98134.09;5050854;28;20657;-77
2022/10/06 08:51:48;;;;;;;2.03;1.77;;;;;;;18.16;45.04;98142.34;5050531;28;20191;-79
2022/10/06 08:54:57;;;;;;;3.67;2.30;;;;;;;18.26;44.41;98138.28;5051077;28;20210;-80
2022/10/06 08:57:37;;;;;;;2.23;1.90;;;;;;;18.44;44.40;98145.09;5028946;28;20776;-77
2022/10/06 09:00:10;;;;;;;4.53;2.67;;;;;;;18.39;44.87;98133.97;5049776;28;20659;-80
2022/10/06 09:02:41;;;;;;;2.47;1.90;;;;;;;18.32;44.07;98130.06;5051248;28;20245;-80
2022/10/06 09:05:24;;;;;;;3.47;2.33;;;;;;;18.17;44.43;98136.19;5053565;28;20220;-78
2022/10/06 09:08:03;;;;;;;2.87;1.80;;;;;;;18.09;43.96;98141.03;5051544;28;20184;-77
2022/10/06 09:10:44;;;;;;;6.53;2.57;;;;;;;17.98;43.69;98136.41;5053839;28;20647;-81
2022/10/06 09:13:27;;;;;;;1.40;1.30;;;;;;;17.72;44.08;98135.28;5055581;28;20204;-80
2022/10/06 09:16:07;;;;;;;2.27;1.67;;;;;;;17.81;44.15;98132.16;5055193;28;20190;-80
2022/10/06 09:18:44;;;;;;;1.60;1.50;;;;;;;17.79;44.06;98115.66;5053034;28;20253;-80
2022/10/06 09:21:42;;;;;;;3.13;2.03;;;;;;;18.11;44.09;98112.97;5052981;28;20193;-80
2022/10/06 09:24:30;;;;;;;8.87;2.70;;;;;;;18.37;43.87;98114.88;5053516;28;20293;-79
2022/10/06 09:26:58;;;;;;;3.73;1.70;;;;;;;18.38;43.42;98119.19;5050979;28;20274;-80
2022/10/06 09:29:30;;;;;;;1.60;1.50;;;;;;;18.44;43.16;98111.81;5050541;28;20219;-78
2022/10/06 09:31:58;;;;;;;1.90;1.80;;;;;;;18.48;42.90;98122.97;5051009;28;20202;-79
2022/10/06 09:34:52;;;;;;;2.33;1.80;;;;;;;18.15;43.61;98114.47;5050706;28;20314;-78
2022/10/06 09:37:19;;;;;;;4.97;2.30;;;;;;;18.33;43.47;98113.38;5059470;28;20291;-78
2022/10/06 09:39:49;;;;;;;4.13;2.23;;;;;;;18.67;42.75;98110.41;5051132;28;20207;-79
2022/10/06 09:42:29;;;;;;;3.60;2.10;;;;;;;19.00;42.61;98112.78;5050593;28;20191;-79
2022/10/06 09:45:02;;;;;;;2.53;2.23;;;;;;;19.03;41.66;98094.19;5051177;28;20343;-79
2022/10/06 09:47:35;;;;;;;3.17;1.90;;;;;;;19.27;41.11;98108.38;5050043;28;20201;-79
2022/10/06 09:50:15;;;;;;;5.20;1.90;;;;;;;19.29;40.99;98096.84;5049888;28;20304;-78
2022/10/06 09:52:59;;;;;;;3.30;1.97;;;;;;;19.33;41.04;98097.50;5064630;28;20207;-79
2022/10/06 09:55:36;;;;;;;4.30;2.00;;;;;;;19.30;40.97;98089.81;5051339;28;20725;-79
2022/10/06 09:58:18;;;;;;;4.50;1.80;;;;;;;19.36;40.51;98092.09;5054910;28;20277;-80
2022/10/06 10:00:47;;;;;;;4.50;1.57;;;;;;;19.05;41.00;98090.53;5052142;28;20213;-78
2022/10/06 10:03:16;;;;;;;2.87;1.60;;;;;;;19.01;41.28;98096.06;5052149;28;20189;-79
2022/10/06 10:05:50;;;;;;;1.63;1.53;;;;;;;19.14;40.97;98091.75;5050439;28;20224;-80
2022/10/06 10:08:26;;;;;;;3.93;1.60;;;;;;;19.03;41.28;98081.91;5050229;28;20225;-77
2022/10/06 10:14:18;;;;;;;3.73;1.90;;;;;;;19.53;41.66;98083.13;5052346;28;20258;-79
2022/10/06 10:16:46;;;;;;;3.70;2.03;;;;;;;19.82;40.53;98077.66;5051050;28;20658;-80
2022/10/06 10:19:24;;;;;;;4.50;2.20;;;;;;;20.07;40.33;98080.31;5051832;28;20267;-78
2022/10/06 10:21:55;;;;;;;2.07;1.80;;;;;;;20.25;40.38;98071.22;5050583;28;20205;-78
2022/10/06 10:24:46;;;;;;;4.37;1.90;;;;;;;20.37;40.73;98061.63;5047159;28;20289;-78
2022/10/06 10:27:57;;;;;;;7.43;2.23;;;;;;;20.36;40.52;98064.38;5046971;28;20219;-78
2022/10/06 10:30:27;;;;;;;3.20;2.03;;;;;;;20.18;40.92;98042.75;4987223;28;20254;-77
2022/10/06 10:33:00;;;;;;;3.97;2.77;;;;;;;20.20;40.63;98047.00;5041999;28;20201;-79
2022/10/06 10:35:47;;;;;;;4.53;2.20;;;;;;;20.30;40.65;98049.84;5048432;28;20710;-79
2022/10/06 10:38:21;;;;;;;3.90;2.00;;;;;;;20.42;39.67;98041.13;5048045;28;20525;-79
2022/10/06 10:40:53;;;;;;;4.50;2.20;;;;;;;20.52;39.22;98033.41;5047177;28;20267;-78
2022/10/06 10:43:48;;;;;;;2.57;2.27;;;;;;;20.53;38.82;98024.56;5048651;28;20193;-78
2022/10/06 10:46:30;;;;;;;1.90;1.50;;;;;;;20.58;39.59;98025.94;5048455;28;20217;-79
2022/10/06 10:49:14;;;;;;;5.53;2.90;;;;;;;20.83;38.54;98028.53;5047479;28;20186;-80
2022/10/06 10:51:59;;;;;;;4.53;2.60;;;;;;;20.82;38.27;98005.78;5049133;28;20247;-79
2022/10/06 10:54:37;;;;;;;4.20;1.80;;;;;;;21.02;37.42;98014.88;5047752;28;20535;-78
2022/10/06 10:57:12;;;;;;;2.67;1.60;;;;;;;20.97;37.31;98011.72;5049318;28;20580;-77
2022/10/06 11:00:00;;;;;;;3.43;1.70;;;;;;;20.68;37.33;97995.38;5049539;28;20178;-78
2022/10/06 11:02:30;;;;;;;1.93;1.27;;;;;;;20.30;37.32;98002.47;5050806;28;20283;-78
2022/10/06 11:05:01;;;;;;;5.33;1.70;;;;;;;20.13;38.13;98003.59;5050802;28;20230;-78
2022/10/06 11:07:53;;;;;;;3.00;1.73;;;;;;;20.15;37.90;97985.13;5050399;28;20194;-78
2022/10/06 11:10:30;;;;;;;2.73;1.43;;;;;;;20.24;37.34;97992.38;5050168;28;20236;-78
2022/10/06 11:13:15;;;;;;;4.73;2.00;;;;;;;20.48;37.45;97993.31;5051485;28;20578;-78
2022/10/06 11:16:03;;;;;;;3.93;1.27;;;;;;;20.64;36.52;97996.56;5048303;28;20198;-78
2022/10/06 11:18:52;;;;;;;3.00;1.73;;;;;;;20.79;36.93;97989.34;5048410;28;20232;-79
2022/10/06 11:22:02;;;;;;;1.90;1.70;;;;;;;20.58;37.22;97985.59;5048973;28;20198;-78
2022/10/06 11:25:15;;;;;;;2.73;1.57;;;;;;;20.49;36.96;97975.72;4986743;28;20203;-81
2022/10/06 11:27:55;;;;;;;2.20;1.60;;;;;;;20.74;36.49;97976.50;5045457;28;20209;-77
2022/10/06 11:30:25;;;;;;;3.67;2.30;;;;;;;21.04;35.97;97974.31;5047623;28;20223;-78
2022/10/06 11:33:00;;;;;;;4.30;1.97;;;;;;;21.21;35.84;97965.19;5047741;28;20190;-79
2022/10/06 11:35:39;;;;;;;6.53;2.33;;;;;;;21.40;35.43;97959.41;5048716;28;20232;-78
2022/10/06 11:38:11;;;;;;;2.90;1.40;;;;;;;21.22;35.67;97966.03;5046970;28;20209;-77
2022/10/06 11:40:49;;;;;;;2.77;1.60;;;;;;;21.33;35.24;97960.81;5047373;28;20283;-80
2022/10/06 11:43:40;;;;;;;3.03;1.47;;;;;;;21.21;35.14;97959.91;5046373;28;20192;-79
2022/10/06 11:46:48;;;;;;;3.87;1.77;;;;;;;21.27;35.60;97956.00;5048200;28;20249;-80
2022/10/06 11:49:27;;;;;;;3.77;2.50;;;;;;;21.46;35.07;97951.88;5044959;28;20218;-79
2022/10/06 11:52:06;;;;;;;4.03;2.27;;;;;;;21.63;35.08;97950.63;5048236;28;20229;-80
2022/10/06 11:54:46;;;;;;;9.77;2.10;;;;;;;21.76;34.85;97946.09;5051390;28;20292;-80
2022/10/06 11:57:22;;;;;;;3.00;1.40;;;;;;;21.63;34.10;97942.69;5050266;28;20202;-79
2022/10/06 12:00:02;;;;;;;3.07;1.30;;;;;;;21.67;34.10;97946.78;5051140;28;20198;-80
2022/10/06 12:02:40;;;;;;;3.80;1.87;;;;;;;21.70;34.59;97931.56;5050565;28;20660;-81
2022/10/06 12:05:14;;;;;;;2.40;1.67;;;;;;;21.61;34.33;97942.81;5051698;28;20307;-80
2022/10/06 12:08:00;;;;;;;2.70;1.80;;;;;;;21.37;34.42;97936.75;5055175;28;20778;-80
2022/10/06 12:10:27;;;;;;;2.70;1.80;;;;;;;21.51;34.26;97943.63;5054780;28;20214;-78
2022/10/06 12:13:18;;;;;;;1.63;1.20;;;;;;;21.62;33.81;97933.09;5053971;28;20247;-80
2022/10/06 12:16:17;;;;;;;4.27;1.43;;;;;;;21.40;33.61;97890.88;5054338;28;20185;-79
2022/10/06 12:19:18;;;;;;;1.50;1.37;;;;;;;21.76;32.75;97931.09;5051746;28;20187;-79
2022/10/06 12:22:05;;;;;;;2.17;1.20;;;;;;;21.79;32.66;97922.97;5052907;28;20255;-77